sensor_id;sensor_type;location;lat;lon;timestamp;pressure;altitude;pressure_sealevel;temperature;humidity
30730;BME280;17476;48.458;7.928;2023-05-15T00:00:12;99636.72;;;14.64;88.99
30730;BME280;17476;48.458;7.928;2023-05-15T00:02:38;99632.63;;;14.55;88.54
30730;BME280;17476;48.458;7.928;2023-05-15T00:05:06;99634.84;;;14.52;88.82
30730;BME280;17476;48.458;7.928;2023-05-15T00:07:35;99634.03;;;14.51;89.66
30730;BME280;17476;48.458;7.928;2023-05-15T00:10:01;99632.41;;;14.50;88.59
30730;BME280;17476;48.458;7.928;2023-05-15T00:12:27;99630.78;;;14.56;88.43
30730;BME280;17476;48.458;7.928;2023-05-15T00:14:53;99633.88;;;14.59;88.30
30730;BME280;17476;48.458;7.928;2023-05-15T00:17:19;99632.66;;;14.62;88.24
30730;BME280;17476;48.458;7.928;2023-05-15T00:19:45;99632.44;;;14.57;87.77
30730;BME280;17476;48.458;7.928;2023-05-15T00:22:10;99629.59;;;14.52;87.65
30730;BME280;17476;48.458;7.928;2023-05-15T00:24:36;99630.09;;;14.40;88.90
30730;BME280;17476;48.458;7.928;2023-05-15T00:27:02;99630.66;;;14.29;88.79
30730;BME280;17476;48.458;7.928;2023-05-15T00:29:29;99627.19;;;14.22;88.39
30730;BME280;17476;48.458;7.928;2023-05-15T00:31:55;99622.75;;;14.23;88.46
30730;BME280;17476;48.458;7.928;2023-05-15T00:34:21;99628.63;;;14.25;87.38
30730;BME280;17476;48.458;7.928;2023-05-15T00:36:47;99626.78;;;14.18;88.00
30730;BME280;17476;48.458;7.928;2023-05-15T00:39:13;99638.09;;;14.19;87.16
30730;BME280;17476;48.458;7.928;2023-05-15T00:41:40;99636.03;;;14.14;87.21
30730;BME280;17476;48.458;7.928;2023-05-15T00:44:06;99638.47;;;14.09;88.48
30730;BME280;17476;48.458;7.928;2023-05-15T00:46:34;99634.19;;;14.08;87.85
30730;BME280;17476;48.458;7.928;2023-05-15T00:49:03;99631.19;;;14.11;88.25
30730;BME280;17476;48.458;7.928;2023-05-15T00:51:30;99630.78;;;14.14;88.80
30730;BME280;17476;48.458;7.928;2023-05-15T00:53:58;99626.81;;;14.25;87.27
30730;BME280;17476;48.458;7.928;2023-05-15T00:56:24;99623.13;;;14.19;89.08
30730;BME280;17476;48.458;7.928;2023-05-15T00:58:53;99625.91;;;14.11;89.95
30730;BME280;17476;48.458;7.928;2023-05-15T01:01:20;99628.88;;;14.02;90.82
30730;BME280;17476;48.458;7.928;2023-05-15T01:03:46;99628.63;;;13.90;92.61
30730;BME280;17476;48.458;7.928;2023-05-15T01:06:12;99630.41;;;13.83;92.68
30730;BME280;17476;48.458;7.928;2023-05-15T01:08:46;99629.50;;;13.69;93.58
30730;BME280;17476;48.458;7.928;2023-05-15T01:11:14;99639.41;;;13.74;93.29
30730;BME280;17476;48.458;7.928;2023-05-15T01:13:41;99643.06;;;13.73;93.08
30730;BME280;17476;48.458;7.928;2023-05-15T01:16:08;99647.75;;;13.77;92.98
30730;BME280;17476;48.458;7.928;2023-05-15T01:18:34;99648.84;;;13.89;92.23
30730;BME280;17476;48.458;7.928;2023-05-15T01:21:14;99639.84;;;14.05;91.35
30730;BME280;17476;48.458;7.928;2023-05-15T01:29:48;99632.88;;;13.91;91.59
30730;BME280;17476;48.458;7.928;2023-05-15T01:32:28;99622.00;;;14.01;90.56
30730;BME280;17476;48.458;7.928;2023-05-15T01:35:22;99626.47;;;14.00;90.76
30730;BME280;17476;48.458;7.928;2023-05-15T01:38:00;99631.16;;;14.05;90.37
30730;BME280;17476;48.458;7.928;2023-05-15T01:40:28;99633.78;;;14.05;90.25
30730;BME280;17476;48.458;7.928;2023-05-15T01:42:56;99628.72;;;14.03;90.96
30730;BME280;17476;48.458;7.928;2023-05-15T01:45:23;99624.06;;;14.05;91.28
30730;BME280;17476;48.458;7.928;2023-05-15T01:47:52;99619.66;;;14.12;89.77
30730;BME280;17476;48.458;7.928;2023-05-15T01:50:19;99625.06;;;14.04;89.77
30730;BME280;17476;48.458;7.928;2023-05-15T01:52:50;99625.56;;;13.86;90.83
30730;BME280;17476;48.458;7.928;2023-05-15T01:55:18;99635.72;;;13.89;90.69
30730;BME280;17476;48.458;7.928;2023-05-15T01:57:47;99623.53;;;13.82;90.74
30730;BME280;17476;48.458;7.928;2023-05-15T02:00:16;99628.38;;;13.85;90.38
30730;BME280;17476;48.458;7.928;2023-05-15T02:02:43;99625.97;;;13.83;89.66
30730;BME280;17476;48.458;7.928;2023-05-15T02:05:11;99623.00;;;13.65;90.69
30730;BME280;17476;48.458;7.928;2023-05-15T02:07:37;99626.81;;;13.34;93.77
30730;BME280;17476;48.458;7.928;2023-05-15T02:10:04;99626.22;;;13.18;93.90
30730;BME280;17476;48.458;7.928;2023-05-15T02:12:30;99624.94;;;13.13;93.94
30730;BME280;17476;48.458;7.928;2023-05-15T02:14:57;99614.22;;;13.30;93.42
30730;BME280;17476;48.458;7.928;2023-05-15T02:17:27;99619.63;;;13.22;93.87
30730;BME280;17476;48.458;7.928;2023-05-15T02:19:54;99627.75;;;13.12;95.35
30730;BME280;17476;48.458;7.928;2023-05-15T02:22:20;99617.84;;;13.07;95.59
30730;BME280;17476;48.458;7.928;2023-05-15T02:24:46;99615.69;;;13.18;95.24
30730;BME280;17476;48.458;7.928;2023-05-15T02:27:21;99621.09;;;13.31;93.80
30730;BME280;17476;48.458;7.928;2023-05-15T02:30:34;99619.41;;;13.45;92.94
30730;BME280;17476;48.458;7.928;2023-05-15T02:34:16;99617.44;;;13.53;91.71
30730;BME280;17476;48.458;7.928;2023-05-15T02:36:28;99618.41;;;13.46;91.34
30730;BME280;17476;48.458;7.928;2023-05-15T02:38:58;99621.69;;;13.54;91.42
30730;BME280;17476;48.458;7.928;2023-05-15T02:41:25;99621.63;;;13.48;92.07
30730;BME280;17476;48.458;7.928;2023-05-15T02:43:53;99623.84;;;13.44;91.89
30730;BME280;17476;48.458;7.928;2023-05-15T02:46:20;99616.97;;;13.43;91.86
30730;BME280;17476;48.458;7.928;2023-05-15T02:48:46;99618.09;;;13.34;92.45
30730;BME280;17476;48.458;7.928;2023-05-15T02:51:13;99622.97;;;13.16;93.53
30730;BME280;17476;48.458;7.928;2023-05-15T02:53:40;99614.53;;;13.20;93.87
30730;BME280;17476;48.458;7.928;2023-05-15T02:56:07;99608.72;;;13.25;93.30
30730;BME280;17476;48.458;7.928;2023-05-15T02:58:33;99609.84;;;13.16;93.39
30730;BME280;17476;48.458;7.928;2023-05-15T03:01:00;99607.56;;;13.12;93.46
30730;BME280;17476;48.458;7.928;2023-05-15T03:03:26;99609.19;;;13.13;93.47
30730;BME280;17476;48.458;7.928;2023-05-15T03:05:51;99616.72;;;13.17;93.78
30730;BME280;17476;48.458;7.928;2023-05-15T03:08:18;99613.69;;;13.20;92.45
30730;BME280;17476;48.458;7.928;2023-05-15T03:10:44;99604.19;;;13.19;92.55
30730;BME280;17476;48.458;7.928;2023-05-15T03:13:10;99603.59;;;13.17;92.89
30730;BME280;17476;48.458;7.928;2023-05-15T03:15:36;99613.56;;;13.06;93.50
30730;BME280;17476;48.458;7.928;2023-05-15T03:18:02;99611.41;;;12.89;94.12
30730;BME280;17476;48.458;7.928;2023-05-15T03:20:27;99619.50;;;12.94;95.38
30730;BME280;17476;48.458;7.928;2023-05-15T03:22:53;99617.13;;;12.99;95.44
30730;BME280;17476;48.458;7.928;2023-05-15T03:25:21;99620.84;;;13.04;94.31
30730;BME280;17476;48.458;7.928;2023-05-15T03:27:47;99621.16;;;12.95;95.34
30730;BME280;17476;48.458;7.928;2023-05-15T03:30:12;99626.56;;;12.93;96.44
30730;BME280;17476;48.458;7.928;2023-05-15T03:32:38;99621.84;;;13.03;96.58
30730;BME280;17476;48.458;7.928;2023-05-15T03:35:04;99626.97;;;13.11;95.66
30730;BME280;17476;48.458;7.928;2023-05-15T03:37:31;99630.19;;;13.13;94.75
30730;BME280;17476;48.458;7.928;2023-05-15T03:39:57;99633.06;;;12.97;94.23
30730;BME280;17476;48.458;7.928;2023-05-15T03:42:23;99628.16;;;12.88;95.66
30730;BME280;17476;48.458;7.928;2023-05-15T03:44:50;99633.00;;;12.91;96.83
30730;BME280;17476;48.458;7.928;2023-05-15T03:47:15;99625.19;;;12.97;95.28
30730;BME280;17476;48.458;7.928;2023-05-15T03:49:42;99630.97;;;13.07;94.54
30730;BME280;17476;48.458;7.928;2023-05-15T03:52:08;99630.84;;;12.94;94.72
30730;BME280;17476;48.458;7.928;2023-05-15T03:54:34;99632.06;;;12.98;95.87
30730;BME280;17476;48.458;7.928;2023-05-15T03:57:00;99638.66;;;13.09;94.62
30730;BME280;17476;48.458;7.928;2023-05-15T03:59:26;99632.59;;;13.08;94.13
30730;BME280;17476;48.458;7.928;2023-05-15T04:01:52;99629.38;;;13.13;94.41
30730;BME280;17476;48.458;7.928;2023-05-15T04:04:18;99631.84;;;13.15;93.83
30730;BME280;17476;48.458;7.928;2023-05-15T04:06:43;99630.28;;;13.20;93.90
30730;BME280;17476;48.458;7.928;2023-05-15T04:09:09;99625.75;;;13.29;93.03
30730;BME280;17476;48.458;7.928;2023-05-15T04:11:35;99624.78;;;13.36;91.68
30730;BME280;17476;48.458;7.928;2023-05-15T04:14:01;99630.88;;;13.37;91.63
30730;BME280;17476;48.458;7.928;2023-05-15T04:16:27;99633.69;;;13.35;90.59
30730;BME280;17476;48.458;7.928;2023-05-15T04:18:52;99630.00;;;13.30;90.49
30730;BME280;17476;48.458;7.928;2023-05-15T04:21:18;99630.66;;;13.17;91.77
30730;BME280;17476;48.458;7.928;2023-05-15T04:23:44;99634.09;;;13.18;91.77
30730;BME280;17476;48.458;7.928;2023-05-15T04:26:10;99632.13;;;13.05;93.33
30730;BME280;17476;48.458;7.928;2023-05-15T04:28:36;99636.28;;;13.14;91.85
30730;BME280;17476;48.458;7.928;2023-05-15T04:31:02;99636.28;;;13.14;92.50
30730;BME280;17476;48.458;7.928;2023-05-15T04:33:27;99641.84;;;13.04;92.33
30730;BME280;17476;48.458;7.928;2023-05-15T04:35:53;99636.97;;;13.01;93.88
30730;BME280;17476;48.458;7.928;2023-05-15T04:38:19;99631.41;;;13.11;93.31
30730;BME280;17476;48.458;7.928;2023-05-15T04:40:45;99632.91;;;13.20;92.09
30730;BME280;17476;48.458;7.928;2023-05-15T04:43:11;99627.50;;;13.22;92.04
30730;BME280;17476;48.458;7.928;2023-05-15T04:45:36;99626.75;;;13.28;91.82
30730;BME280;17476;48.458;7.928;2023-05-15T04:48:03;99635.56;;;13.05;92.94
30730;BME280;17476;48.458;7.928;2023-05-15T04:50:29;99625.31;;;12.89;93.77
30730;BME280;17476;48.458;7.928;2023-05-15T04:52:55;99629.66;;;12.97;93.31
30730;BME280;17476;48.458;7.928;2023-05-15T04:55:21;99631.06;;;12.99;93.43
30730;BME280;17476;48.458;7.928;2023-05-15T04:57:46;99628.38;;;12.93;94.04
30730;BME280;17476;48.458;7.928;2023-05-15T05:00:13;99631.47;;;12.96;93.85
30730;BME280;17476;48.458;7.928;2023-05-15T05:02:40;99632.69;;;13.00;94.23
30730;BME280;17476;48.458;7.928;2023-05-15T05:05:07;99635.72;;;13.19;93.27
30730;BME280;17476;48.458;7.928;2023-05-15T05:07:34;99639.94;;;13.34;92.44
30730;BME280;17476;48.458;7.928;2023-05-15T05:10:00;99630.41;;;13.55;90.39
30730;BME280;17476;48.458;7.928;2023-05-15T05:12:26;99636.22;;;13.50;91.38
30730;BME280;17476;48.458;7.928;2023-05-15T05:14:52;99632.53;;;13.45;91.56
30730;BME280;17476;48.458;7.928;2023-05-15T05:17:19;99637.44;;;13.54;91.33
30730;BME280;17476;48.458;7.928;2023-05-15T05:19:45;99635.56;;;13.70;90.54
30730;BME280;17476;48.458;7.928;2023-05-15T05:22:11;99645.53;;;13.81;90.41
30730;BME280;17476;48.458;7.928;2023-05-15T05:24:37;99647.00;;;13.83;89.74
30730;BME280;17476;48.458;7.928;2023-05-15T05:27:03;99649.72;;;13.97;88.77
30730;BME280;17476;48.458;7.928;2023-05-15T05:29:30;99645.66;;;14.01;88.35
30730;BME280;17476;48.458;7.928;2023-05-15T05:31:56;99652.03;;;13.85;88.76
30730;BME280;17476;48.458;7.928;2023-05-15T05:34:22;99647.78;;;13.84;90.12
30730;BME280;17476;48.458;7.928;2023-05-15T05:36:48;99652.53;;;14.02;88.85
30730;BME280;17476;48.458;7.928;2023-05-15T05:39:15;99643.19;;;14.27;88.05
30730;BME280;17476;48.458;7.928;2023-05-15T05:41:42;99644.34;;;14.46;86.81
30730;BME280;17476;48.458;7.928;2023-05-15T05:44:08;99639.81;;;14.40;86.44
30730;BME280;17476;48.458;7.928;2023-05-15T05:46:34;99642.84;;;14.37;87.14
30730;BME280;17476;48.458;7.928;2023-05-15T05:49:00;99640.91;;;14.52;86.66
30730;BME280;17476;48.458;7.928;2023-05-15T05:51:25;99636.72;;;14.64;86.25
30730;BME280;17476;48.458;7.928;2023-05-15T05:53:51;99640.78;;;14.73;85.32
30730;BME280;17476;48.458;7.928;2023-05-15T05:56:17;99647.06;;;14.72;85.34
30730;BME280;17476;48.458;7.928;2023-05-15T05:58:43;99643.06;;;14.90;83.85
30730;BME280;17476;48.458;7.928;2023-05-15T06:01:09;99648.75;;;15.00;84.54
30730;BME280;17476;48.458;7.928;2023-05-15T06:03:37;99647.56;;;15.09;83.63
30730;BME280;17476;48.458;7.928;2023-05-15T06:06:03;99641.28;;;15.23;82.82
30730;BME280;17476;48.458;7.928;2023-05-15T06:08:29;99641.31;;;15.30;82.39
30730;BME280;17476;48.458;7.928;2023-05-15T06:10:56;99639.47;;;15.44;81.29
30730;BME280;17476;48.458;7.928;2023-05-15T06:13:21;99639.50;;;15.57;81.92
30730;BME280;17476;48.458;7.928;2023-05-15T06:15:48;99643.16;;;15.76;81.04
30730;BME280;17476;48.458;7.928;2023-05-15T06:18:13;99641.91;;;15.92;79.72
30730;BME280;17476;48.458;7.928;2023-05-15T06:20:39;99642.94;;;15.91;80.41
30730;BME280;17476;48.458;7.928;2023-05-15T06:23:07;99645.59;;;15.77;81.19
30730;BME280;17476;48.458;7.928;2023-05-15T06:25:34;99644.75;;;15.90;80.13
30730;BME280;17476;48.458;7.928;2023-05-15T06:28:00;99642.88;;;16.24;79.37
30730;BME280;17476;48.458;7.928;2023-05-15T06:30:25;99641.22;;;16.29;78.05
30730;BME280;17476;48.458;7.928;2023-05-15T06:32:52;99647.72;;;16.33;78.12
30730;BME280;17476;48.458;7.928;2023-05-15T06:35:18;99636.63;;;16.63;77.72
30730;BME280;17476;48.458;7.928;2023-05-15T06:37:44;99648.00;;;16.63;76.63
30730;BME280;17476;48.458;7.928;2023-05-15T06:40:15;99637.41;;;16.77;78.58
30730;BME280;17476;48.458;7.928;2023-05-15T06:42:41;99638.28;;;17.02;75.95
30730;BME280;17476;48.458;7.928;2023-05-15T06:45:08;99638.56;;;17.19;74.92
30730;BME280;17476;48.458;7.928;2023-05-15T06:47:34;99644.84;;;17.25;72.85
30730;BME280;17476;48.458;7.928;2023-05-15T06:50:00;99645.47;;;17.20;73.71
30730;BME280;17476;48.458;7.928;2023-05-15T06:52:26;99644.16;;;17.04;73.92
30730;BME280;17476;48.458;7.928;2023-05-15T06:54:51;99642.28;;;17.11;74.24
30730;BME280;17476;48.458;7.928;2023-05-15T06:57:18;99645.63;;;17.00;74.22
30730;BME280;17476;48.458;7.928;2023-05-15T06:59:44;99650.84;;;17.07;72.22
30730;BME280;17476;48.458;7.928;2023-05-15T07:02:11;99652.09;;;17.04;72.92
30730;BME280;17476;48.458;7.928;2023-05-15T07:04:36;99653.50;;;17.38;72.46
30730;BME280;17476;48.458;7.928;2023-05-15T07:07:02;99644.81;;;17.56;72.87
30730;BME280;17476;48.458;7.928;2023-05-15T07:09:28;99655.50;;;17.68;72.40
30730;BME280;17476;48.458;7.928;2023-05-15T07:11:54;99651.34;;;17.54;70.39
30730;BME280;17476;48.458;7.928;2023-05-15T07:14:20;99647.56;;;17.43;71.90
30730;BME280;17476;48.458;7.928;2023-05-15T07:16:46;99650.69;;;17.58;71.99
30730;BME280;17476;48.458;7.928;2023-05-15T07:19:12;99648.66;;;17.85;72.75
30730;BME280;17476;48.458;7.928;2023-05-15T07:21:40;99645.31;;;17.96;70.83
30730;BME280;17476;48.458;7.928;2023-05-15T07:24:06;99643.16;;;18.05;71.29
30730;BME280;17476;48.458;7.928;2023-05-15T07:26:32;99645.59;;;17.88;68.90
30730;BME280;17476;48.458;7.928;2023-05-15T07:28:58;99646.75;;;17.67;70.27
30730;BME280;17476;48.458;7.928;2023-05-15T07:31:24;99649.84;;;17.89;70.54
30730;BME280;17476;48.458;7.928;2023-05-15T07:33:50;99643.69;;;18.14;69.24
30730;BME280;17476;48.458;7.928;2023-05-15T07:36:16;99642.00;;;18.38;67.97
30730;BME280;17476;48.458;7.928;2023-05-15T07:38:41;99640.00;;;18.33;67.15
30730;BME280;17476;48.458;7.928;2023-05-15T07:41:07;99649.41;;;18.66;68.08
30730;BME280;17476;48.458;7.928;2023-05-15T07:43:33;99645.72;;;18.85;66.94
30730;BME280;17476;48.458;7.928;2023-05-15T07:45:59;99646.69;;;19.02;65.68
30730;BME280;17476;48.458;7.928;2023-05-15T07:48:25;99644.19;;;19.07;63.11
30730;BME280;17476;48.458;7.928;2023-05-15T07:50:51;99642.44;;;19.01;63.38
30730;BME280;17476;48.458;7.928;2023-05-15T07:53:18;99636.13;;;19.14;63.87
30730;BME280;17476;48.458;7.928;2023-05-15T07:55:44;99634.53;;;19.36;63.23
30730;BME280;17476;48.458;7.928;2023-05-15T07:58:10;99638.00;;;19.37;63.26
30730;BME280;17476;48.458;7.928;2023-05-15T08:00:36;99632.19;;;19.17;63.09
30730;BME280;17476;48.458;7.928;2023-05-15T08:03:03;99634.22;;;19.33;64.01
30730;BME280;17476;48.458;7.928;2023-05-15T08:05:29;99635.28;;;19.55;60.98
30730;BME280;17476;48.458;7.928;2023-05-15T08:07:56;99635.13;;;19.50;60.97
30730;BME280;17476;48.458;7.928;2023-05-15T08:10:22;99634.03;;;19.81;61.53
30730;BME280;17476;48.458;7.928;2023-05-15T08:12:48;99629.06;;;20.08;61.02
30730;BME280;17476;48.458;7.928;2023-05-15T08:15:15;99624.44;;;20.67;61.50
30730;BME280;17476;48.458;7.928;2023-05-15T08:17:41;99627.47;;;21.50;58.90
30730;BME280;17476;48.458;7.928;2023-05-15T08:20:08;99617.66;;;21.89;57.37
30730;BME280;17476;48.458;7.928;2023-05-15T08:22:34;99624.22;;;22.42;56.73
30730;BME280;17476;48.458;7.928;2023-05-15T08:25:01;99618.50;;;22.82;54.93
30730;BME280;17476;48.458;7.928;2023-05-15T08:27:28;99616.22;;;23.18;53.35
30730;BME280;17476;48.458;7.928;2023-05-15T08:29:54;99617.03;;;23.56;52.89
30730;BME280;17476;48.458;7.928;2023-05-15T08:32:20;99612.09;;;24.27;48.75
30730;BME280;17476;48.458;7.928;2023-05-15T08:34:46;99620.22;;;24.47;47.39
30730;BME280;17476;48.458;7.928;2023-05-15T08:37:12;99610.72;;;25.02;49.63
30730;BME280;17476;48.458;7.928;2023-05-15T08:39:38;99620.63;;;25.63;44.88
30730;BME280;17476;48.458;7.928;2023-05-15T08:42:20;99619.56;;;25.23;42.66
30730;BME280;17476;48.458;7.928;2023-05-15T08:44:47;99620.81;;;24.70;48.00
30730;BME280;17476;48.458;7.928;2023-05-15T08:47:17;99618.72;;;24.97;47.01
30730;BME280;17476;48.458;7.928;2023-05-15T08:50:11;99620.41;;;24.31;46.00
30730;BME280;17476;48.458;7.928;2023-05-15T08:52:41;99617.66;;;24.15;47.36
30730;BME280;17476;48.458;7.928;2023-05-15T08:55:08;99614.06;;;24.42;49.90
30730;BME280;17476;48.458;7.928;2023-05-15T08:57:35;99611.34;;;24.37;44.39
30730;BME280;17476;48.458;7.928;2023-05-15T09:00:03;99610.44;;;24.16;44.31
30730;BME280;17476;48.458;7.928;2023-05-15T09:02:37;99606.47;;;23.66;47.58
30730;BME280;17476;48.458;7.928;2023-05-15T09:05:04;99607.81;;;24.21;47.59
30730;BME280;17476;48.458;7.928;2023-05-15T09:07:31;99606.47;;;25.22;45.90
30730;BME280;17476;48.458;7.928;2023-05-15T09:09:58;99595.06;;;26.06;46.14
30730;BME280;17476;48.458;7.928;2023-05-15T09:12:26;99597.06;;;26.45;44.94
30730;BME280;17476;48.458;7.928;2023-05-15T09:15:10;99599.47;;;26.47;43.61
30730;BME280;17476;48.458;7.928;2023-05-15T09:17:37;99592.41;;;27.05;41.67
30730;BME280;17476;48.458;7.928;2023-05-15T09:20:04;99594.00;;;27.06;39.10
30730;BME280;17476;48.458;7.928;2023-05-15T09:22:34;99592.38;;;26.06;46.61
30730;BME280;17476;48.458;7.928;2023-05-15T09:25:01;99590.09;;;26.39;44.54
30730;BME280;17476;48.458;7.928;2023-05-15T09:27:28;99594.16;;;26.36;41.40
30730;BME280;17476;48.458;7.928;2023-05-15T09:29:54;99590.19;;;26.24;44.47
30730;BME280;17476;48.458;7.928;2023-05-15T09:32:25;99587.94;;;26.46;42.01
30730;BME280;17476;48.458;7.928;2023-05-15T09:34:52;99579.16;;;26.75;42.59
30730;BME280;17476;48.458;7.928;2023-05-15T09:37:32;99583.03;;;27.61;41.63
30730;BME280;17476;48.458;7.928;2023-05-15T09:40:09;99568.66;;;28.61;41.82
30730;BME280;17476;48.458;7.928;2023-05-15T09:42:35;99560.72;;;29.54;42.34
30730;BME280;17476;48.458;7.928;2023-05-15T09:45:02;99566.72;;;29.46;35.44
30730;BME280;17476;48.458;7.928;2023-05-15T09:47:28;99558.78;;;29.08;37.44
30730;BME280;17476;48.458;7.928;2023-05-15T09:49:53;99565.34;;;28.83;36.27
30730;BME280;17476;48.458;7.928;2023-05-15T09:52:19;99554.53;;;29.67;37.45
30730;BME280;17476;48.458;7.928;2023-05-15T09:54:48;99545.72;;;30.16;35.75
30730;BME280;17476;48.458;7.928;2023-05-15T09:57:14;99550.72;;;29.68;33.99
30730;BME280;17476;48.458;7.928;2023-05-15T09:59:45;99546.22;;;29.63;35.87
30730;BME280;17476;48.458;7.928;2023-05-15T10:02:27;99541.66;;;30.28;39.58
30730;BME280;17476;48.458;7.928;2023-05-15T10:04:57;99534.81;;;30.80;35.31
30730;BME280;17476;48.458;7.928;2023-05-15T10:07:30;99541.63;;;30.55;32.06
30730;BME280;17476;48.458;7.928;2023-05-15T10:09:57;99536.94;;;30.11;33.94
30730;BME280;17476;48.458;7.928;2023-05-15T10:12:23;99544.19;;;28.76;34.86
30730;BME280;17476;48.458;7.928;2023-05-15T10:14:51;99542.72;;;28.09;36.88
30730;BME280;17476;48.458;7.928;2023-05-15T10:17:19;99536.53;;;26.73;37.91
30730;BME280;17476;48.458;7.928;2023-05-15T10:19:49;99529.53;;;26.77;39.83
30730;BME280;17476;48.458;7.928;2023-05-15T10:22:21;99523.53;;;26.56;37.80
30730;BME280;17476;48.458;7.928;2023-05-15T10:25:02;99532.00;;;26.24;38.07
30730;BME280;17476;48.458;7.928;2023-05-15T10:27:29;99525.78;;;27.12;38.73
30730;BME280;17476;48.458;7.928;2023-05-15T10:29:56;99521.34;;;28.17;37.68
30730;BME280;17476;48.458;7.928;2023-05-15T10:32:23;99509.66;;;28.08;34.92
30730;BME280;17476;48.458;7.928;2023-05-15T10:34:51;99506.47;;;28.63;37.04
30730;BME280;17476;48.458;7.928;2023-05-15T10:37:19;99499.34;;;29.18;34.28
30730;BME280;17476;48.458;7.928;2023-05-15T10:39:46;99504.88;;;29.27;34.35
30730;BME280;17476;48.458;7.928;2023-05-15T10:42:12;99499.88;;;28.88;35.74
30730;BME280;17476;48.458;7.928;2023-05-15T10:44:39;99493.94;;;29.04;36.95
30730;BME280;17476;48.458;7.928;2023-05-15T10:47:05;99492.28;;;29.36;36.74
30730;BME280;17476;48.458;7.928;2023-05-15T10:49:31;99491.53;;;28.70;33.54
30730;BME280;17476;48.458;7.928;2023-05-15T10:51:59;99486.59;;;28.59;35.38
30730;BME280;17476;48.458;7.928;2023-05-15T10:54:25;99480.03;;;29.57;36.16
30730;BME280;17476;48.458;7.928;2023-05-15T10:56:55;99471.22;;;30.52;32.25
30730;BME280;17476;48.458;7.928;2023-05-15T10:59:31;99473.84;;;30.88;32.47
30730;BME280;17476;48.458;7.928;2023-05-15T11:04:43;99470.97;;;29.67;34.72
30730;BME280;17476;48.458;7.928;2023-05-15T11:07:15;99465.06;;;29.51;36.42
30730;BME280;17476;48.458;7.928;2023-05-15T11:09:41;99466.56;;;29.71;34.13
30730;BME280;17476;48.458;7.928;2023-05-15T11:12:10;99459.81;;;29.96;33.10
30730;BME280;17476;48.458;7.928;2023-05-15T11:14:39;99455.09;;;29.52;35.14
30730;BME280;17476;48.458;7.928;2023-05-15T11:17:12;99467.00;;;28.72;33.73
30730;BME280;17476;48.458;7.928;2023-05-15T11:22:28;99460.44;;;29.24;34.59
30730;BME280;17476;48.458;7.928;2023-05-15T11:25:09;99455.34;;;29.78;34.36
30730;BME280;17476;48.458;7.928;2023-05-15T11:27:41;99448.69;;;30.70;33.15
30730;BME280;17476;48.458;7.928;2023-05-15T11:36:03;99447.56;;;29.76;33.48
30730;BME280;17476;48.458;7.928;2023-05-15T11:38:37;99445.69;;;29.77;30.82
30730;BME280;17476;48.458;7.928;2023-05-15T11:41:19;99443.03;;;29.99;36.21
30730;BME280;17476;48.458;7.928;2023-05-15T11:43:47;99442.22;;;30.12;30.76
30730;BME280;17476;48.458;7.928;2023-05-15T11:46:14;99447.19;;;29.14;31.66
30730;BME280;17476;48.458;7.928;2023-05-15T11:48:41;99446.25;;;28.91;32.84
30730;BME280;17476;48.458;7.928;2023-05-15T11:51:18;99441.66;;;28.92;33.68
30730;BME280;17476;48.458;7.928;2023-05-15T11:53:45;99446.66;;;29.12;34.67
30730;BME280;17476;48.458;7.928;2023-05-15T11:56:25;99439.13;;;29.14;33.49
30730;BME280;17476;48.458;7.928;2023-05-15T11:58:58;99434.53;;;29.15;36.36
30730;BME280;17476;48.458;7.928;2023-05-15T12:01:24;99427.53;;;29.27;34.19
30730;BME280;17476;48.458;7.928;2023-05-15T12:03:50;99433.75;;;29.55;36.18
30730;BME280;17476;48.458;7.928;2023-05-15T12:06:18;99427.19;;;30.20;35.39
30730;BME280;17476;48.458;7.928;2023-05-15T12:08:50;99429.50;;;31.11;34.36
30730;BME280;17476;48.458;7.928;2023-05-15T12:11:21;99432.75;;;32.05;31.15
30730;BME280;17476;48.458;7.928;2023-05-15T12:13:51;99434.81;;;32.25;26.61
30730;BME280;17476;48.458;7.928;2023-05-15T12:16:24;99448.59;;;32.76;30.30
30730;BME280;17476;48.458;7.928;2023-05-15T12:18:50;99458.59;;;32.84;28.90
30730;BME280;17476;48.458;7.928;2023-05-15T12:21:16;99476.34;;;32.21;30.05
30730;BME280;17476;48.458;7.928;2023-05-15T12:23:52;99474.03;;;31.22;29.90
30730;BME280;17476;48.458;7.928;2023-05-15T12:26:19;99481.16;;;30.06;31.02
30730;BME280;17476;48.458;7.928;2023-05-15T12:28:47;99481.28;;;29.05;33.02
30730;BME280;17476;48.458;7.928;2023-05-15T12:31:13;99478.84;;;28.19;34.81
30730;BME280;17476;48.458;7.928;2023-05-15T12:33:39;99484.91;;;27.15;38.99
30730;BME280;17476;48.458;7.928;2023-05-15T12:36:06;99494.84;;;26.02;45.38
30730;BME280;17476;48.458;7.928;2023-05-15T12:38:32;99503.16;;;25.21;48.73
30730;BME280;17476;48.458;7.928;2023-05-15T12:40:59;99500.47;;;24.80;50.84
30730;BME280;17476;48.458;7.928;2023-05-15T12:43:26;99504.19;;;24.33;52.37
30730;BME280;17476;48.458;7.928;2023-05-15T12:45:55;99509.28;;;23.77;54.40
30730;BME280;17476;48.458;7.928;2023-05-15T12:48:21;99505.97;;;22.80;56.18
30730;BME280;17476;48.458;7.928;2023-05-15T12:50:47;99500.94;;;22.52;56.93
30730;BME280;17476;48.458;7.928;2023-05-15T12:53:15;99497.84;;;22.65;57.64
30730;BME280;17476;48.458;7.928;2023-05-15T12:55:44;99497.94;;;22.75;57.73
30730;BME280;17476;48.458;7.928;2023-05-15T12:58:12;99492.19;;;22.56;59.08
30730;BME280;17476;48.458;7.928;2023-05-15T13:00:41;99492.13;;;22.51;58.70
30730;BME280;17476;48.458;7.928;2023-05-15T13:03:09;99486.81;;;22.24;57.77
30730;BME280;17476;48.458;7.928;2023-05-15T13:05:37;99480.88;;;22.17;58.05
30730;BME280;17476;48.458;7.928;2023-05-15T13:08:05;99483.28;;;21.97;60.06
30730;BME280;17476;48.458;7.928;2023-05-15T13:10:34;99482.44;;;21.69;55.61
30730;BME280;17476;48.458;7.928;2023-05-15T13:13:01;99484.91;;;21.76;60.27
30730;BME280;17476;48.458;7.928;2023-05-15T13:15:39;99480.09;;;21.95;59.84
30730;BME280;17476;48.458;7.928;2023-05-15T13:18:17;99479.22;;;22.11;58.06
30730;BME280;17476;48.458;7.928;2023-05-15T13:20:47;99470.97;;;22.13;58.26